createdAt,value
2023-08-13T00:02:04.273Z,101729.98
2023-08-13T00:04:33.127Z,101727.04
2023-08-13T00:07:02.145Z,101727.94
2023-08-13T00:09:30.581Z,101728.34
2023-08-13T00:11:59.055Z,101725.90
2023-08-13T00:14:27.455Z,101730.11
2023-08-13T00:16:56.120Z,101729.41
2023-08-13T00:19:24.425Z,101728.87
2023-08-13T00:22:06.056Z,101730.44
2023-08-13T00:24:36.627Z,101733.60
2023-08-13T00:27:05.415Z,101730.63
2023-08-13T00:29:34.788Z,101727.85
2023-08-13T00:32:03.878Z,101726.83
2023-08-13T00:34:32.589Z,101725.42
2023-08-13T00:37:00.832Z,101726.12
2023-08-13T00:39:29.449Z,101728.41
2023-08-13T00:41:57.949Z,101724.58
2023-08-13T00:44:27.851Z,101725.27
2023-08-13T00:46:56.459Z,101724.08
2023-08-13T00:49:25.671Z,101718.11
2023-08-13T00:51:55.799Z,101717.59
2023-08-13T00:54:24.236Z,101714.94
2023-08-13T00:56:54.219Z,101717.06
2023-08-13T00:59:23.700Z,101716.54
2023-08-13T01:01:52.208Z,101715.48
2023-08-13T01:04:20.774Z,101711.27
2023-08-13T01:07:23.301Z,101716.38
2023-08-13T01:10:06.301Z,101714.98
2023-08-13T01:12:44.322Z,101712.17
2023-08-13T01:15:16.101Z,101708.89
2023-08-13T01:17:46.430Z,101709.27
2023-08-13T01:20:16.089Z,101710.37
2023-08-13T01:22:48.345Z,101710.60
2023-08-13T01:25:18.703Z,101705.55
2023-08-13T01:28:03.331Z,101706.64
2023-08-13T01:30:42.752Z,101705.94
2023-08-13T01:33:19.997Z,101708.07
2023-08-13T01:35:48.897Z,101708.42
2023-08-13T01:38:17.867Z,101711.77
2023-08-13T01:40:46.451Z,101709.84
2023-08-13T01:43:14.739Z,101707.97
2023-08-13T01:45:43.121Z,101709.09
2023-08-13T01:48:12.115Z,101707.23
2023-08-13T01:50:41.883Z,101703.80
2023-08-13T01:53:10.447Z,101709.27
2023-08-13T01:55:38.985Z,101709.67
2023-08-13T01:58:09.303Z,101710.60
2023-08-13T02:00:38.309Z,101706.92
2023-08-13T02:03:06.840Z,101711.66
2023-08-13T02:05:35.619Z,101712.77
2023-08-13T02:08:04.664Z,101707.72
2023-08-13T02:10:33.149Z,101704.95
2023-08-13T02:13:02.137Z,101707.77
2023-08-13T02:15:30.550Z,101706.38
2023-08-13T02:17:59.137Z,101708.66
2023-08-13T02:20:27.692Z,101714.65
2023-08-13T02:22:58.873Z,101708.33
2023-08-13T02:25:27.307Z,101709.05
2023-08-13T02:27:55.893Z,101714.82
2023-08-13T02:30:24.499Z,101712.39
2023-08-13T02:32:53.362Z,101712.04
2023-08-13T02:35:21.950Z,101715.95
2023-08-13T02:37:50.341Z,101714.56
2023-08-13T02:40:18.911Z,101714.91
2023-08-13T02:42:47.336Z,101714.56
2023-08-13T02:45:15.880Z,101712.10
2023-08-13T02:47:45.408Z,101715.44
2023-08-13T02:50:14.017Z,101720.52
2023-08-13T02:52:42.612Z,101720.34
2023-08-13T02:55:11.235Z,101720.16
2023-08-13T02:57:43.537Z,101725.23
2023-08-13T03:00:16.400Z,101722.62
2023-08-13T03:02:44.801Z,101724.53
2023-08-13T03:05:13.690Z,101726.64
2023-08-13T03:07:42.273Z,101725.06
2023-08-13T03:10:10.816Z,101726.11
2023-08-13T03:12:39.422Z,101726.31
2023-08-13T03:15:09.024Z,101725.78
2023-08-13T03:17:37.699Z,101725.63
2023-08-13T03:20:07.400Z,101723.36
2023-08-13T03:22:36.241Z,101723.73
2023-08-13T03:25:05.792Z,101725.65
2023-08-13T03:27:34.399Z,101731.60
2023-08-13T03:30:03.073Z,101731.76
2023-08-13T03:32:31.773Z,101727.02
2023-08-13T03:35:00.552Z,101729.81
2023-08-13T03:37:29.222Z,101733.47
2023-08-13T03:39:57.751Z,101737.33
2023-08-13T03:42:26.642Z,101738.36
2023-08-13T03:44:56.553Z,101737.65
2023-08-13T03:47:25.131Z,101738.33
2023-08-13T03:49:53.690Z,101740.95
2023-08-13T03:52:21.997Z,101745.84
2023-08-13T03:54:50.750Z,101740.95
2023-08-13T03:57:19.133Z,101739.72
2023-08-13T03:59:48.052Z,101740.59
2023-08-13T04:02:17.043Z,101741.63
2023-08-13T04:04:46.825Z,101738.97
2023-08-13T04:07:16.551Z,101739.99
2023-08-13T04:09:44.913Z,101739.62
2023-08-13T04:12:13.800Z,101741.87
2023-08-13T04:14:42.824Z,101740.45
2023-08-13T04:17:12.297Z,101735.33
2023-08-13T04:19:40.981Z,101734.91
2023-08-13T04:22:09.594Z,101732.39
2023-08-13T04:24:38.048Z,101732.34
2023-08-13T04:27:07.446Z,101732.27
2023-08-13T04:29:36.140Z,101738.68
2023-08-13T04:32:05.226Z,101737.20
2023-08-13T04:34:34.430Z,101736.06
2023-08-13T04:37:05.665Z,101737.38
2023-08-13T04:39:34.402Z,101738.85
2023-08-13T04:42:03.359Z,101739.98
2023-08-13T04:44:32.036Z,101737.26
2023-08-13T04:47:01.037Z,101741.36
2023-08-13T04:49:29.741Z,101744.61
2023-08-13T04:51:58.512Z,101742.42
2023-08-13T04:54:31.917Z,101745.66
2023-08-13T04:57:00.796Z,101750.16
2023-08-13T04:59:29.854Z,101752.54
2023-08-13T05:01:58.365Z,101755.62
2023-08-13T05:04:26.811Z,101757.14
2023-08-13T05:06:55.767Z,101753.53
2023-08-13T05:09:24.737Z,101756.60
2023-08-13T05:11:56.636Z,101761.73
2023-08-13T05:14:25.920Z,101762.13
2023-08-13T05:16:56.542Z,101764.44
2023-08-13T05:19:27.019Z,101760.77
2023-08-13T05:21:57.489Z,101768.20
2023-08-13T05:24:26.515Z,101765.92
2023-08-13T05:26:56.764Z,101769.43
2023-08-13T05:29:27.351Z,101766.95
2023-08-13T05:31:56.015Z,101765.33
2023-08-13T05:34:25.045Z,101762.84
2023-08-13T05:36:53.495Z,101765.77
2023-08-13T05:39:23.931Z,101765.90
2023-08-13T05:41:53.079Z,101763.36
2023-08-13T05:44:22.112Z,101767.89
2023-08-13T05:46:50.918Z,101762.02
2023-08-13T05:49:19.797Z,101763.40
2023-08-13T05:51:49.945Z,101763.30
2023-08-13T05:54:18.825Z,101766.37
2023-08-13T05:56:48.544Z,101766.38
2023-08-13T05:59:17.198Z,101764.85
2023-08-13T06:01:45.735Z,101768.58
2023-08-13T06:04:15.694Z,101765.30
2023-08-13T06:06:44.475Z,101767.11
2023-08-13T06:09:13.081Z,101768.86
2023-08-13T06:11:41.512Z,101769.98
2023-08-13T06:14:10.347Z,101772.48
2023-08-13T06:16:39.252Z,101774.64
2023-08-13T06:19:07.904Z,101775.70
2023-08-13T06:21:36.834Z,101774.81
2023-08-13T06:24:06.858Z,101773.10
2023-08-13T06:26:36.703Z,101775.04
2023-08-13T06:29:09.183Z,101775.90
2023-08-13T06:31:43.265Z,101774.66
2023-08-13T06:34:12.926Z,101777.14
2023-08-13T06:36:41.613Z,101776.80
2023-08-13T06:39:11.336Z,101781.36
2023-08-13T06:41:40.927Z,101779.72
2023-08-13T06:44:22.745Z,101781.89
2023-08-13T06:46:53.198Z,101779.21
2023-08-13T06:49:21.842Z,101779.77
2023-08-13T06:51:50.312Z,101778.38
2023-08-13T06:54:20.058Z,101778.38
2023-08-13T06:56:49.029Z,101777.16
2023-08-13T06:59:18.143Z,101769.83
2023-08-13T07:01:48.215Z,101773.33
2023-08-13T07:04:18.467Z,101772.26
2023-08-13T07:06:47.705Z,101767.48
2023-08-13T07:09:19.808Z,101765.43
2023-08-13T07:11:48.951Z,101765.30
2023-08-13T07:14:20.166Z,101763.72
2023-08-13T07:16:48.846Z,101762.86
2023-08-13T07:19:17.475Z,101762.65
2023-08-13T07:21:46.567Z,101763.54
2023-08-13T07:24:15.226Z,101764.45
2023-08-13T07:26:43.837Z,101758.64
2023-08-13T07:29:13.965Z,101762.00
2023-08-13T07:31:42.986Z,101759.20
2023-08-13T07:34:11.851Z,101758.39
2023-08-13T07:36:40.284Z,101754.61
2023-08-13T07:39:10.814Z,101757.63
2023-08-13T07:41:39.287Z,101757.58
2023-08-13T07:44:10.739Z,101756.98
2023-08-13T07:46:39.841Z,101755.69
2023-08-13T07:49:09.655Z,101749.83
2023-08-13T07:51:39.270Z,101745.67
2023-08-13T07:54:07.898Z,101744.98
2023-08-13T07:56:37.882Z,101741.29
2023-08-13T07:59:06.846Z,101739.50
2023-08-13T08:01:35.665Z,101742.33
2023-08-13T08:04:07.324Z,101741.23
2023-08-13T08:06:40.864Z,101739.25
2023-08-13T08:09:14.220Z,101734.77
2023-08-13T08:11:43.150Z,101732.42
2023-08-13T08:14:12.123Z,101729.58
2023-08-13T08:16:41.182Z,101729.27
2023-08-13T08:19:15.730Z,101728.05
2023-08-13T08:21:44.491Z,101727.63
2023-08-13T08:24:13.270Z,101727.06
2023-08-13T08:26:44.861Z,101732.80
2023-08-13T08:29:13.294Z,101728.66
2023-08-13T08:31:45.791Z,101725.41
2023-08-13T08:34:14.391Z,101722.45
2023-08-13T08:36:45.806Z,101720.06
2023-08-13T08:39:16.902Z,101716.30
2023-08-13T08:41:48.203Z,101710.86
2023-08-13T08:44:24.004Z,101709.57
2023-08-13T08:46:55.185Z,101707.03
2023-08-13T08:49:24.082Z,101701.13
2023-08-13T08:51:53.220Z,101696.69
2023-08-13T08:54:22.393Z,101696.64
2023-08-13T08:56:50.904Z,101694.09
2023-08-13T08:59:20.541Z,101695.54
2023-08-13T09:01:49.397Z,101694.21
2023-08-13T09:04:18.471Z,101694.60
2023-08-13T09:25:37.054Z,101677.26
2023-08-13T09:28:05.845Z,101676.23
2023-08-13T09:30:34.702Z,101674.04
2023-08-13T09:33:04.532Z,101675.58
2023-08-13T09:35:33.334Z,101677.66
2023-08-13T09:38:02.308Z,101675.65
2023-08-13T09:40:31.450Z,101674.38
2023-08-13T09:43:00.880Z,101671.83
2023-08-13T09:45:30.653Z,101672.22
2023-08-13T09:48:06.674Z,101667.46
2023-08-13T09:50:42.692Z,101666.04
2023-08-13T09:53:16.185Z,101662.28
2023-08-13T09:55:58.562Z,101662.26
2023-08-13T09:58:27.877Z,101663.80
2023-08-13T10:00:57.048Z,101664.01
2023-08-13T10:03:26.694Z,101666.59
2023-08-13T10:05:56.895Z,101663.89
2023-08-13T10:08:26.234Z,101656.58
2023-08-13T10:10:55.106Z,101653.86
2023-08-13T10:13:23.994Z,101648.73
2023-08-13T10:15:55.977Z,101647.41
2023-08-13T10:18:30.510Z,101646.14
2023-08-13T10:20:58.899Z,101646.06
2023-08-13T10:23:31.836Z,101644.02
2023-08-13T10:26:00.505Z,101643.03
2023-08-13T10:28:34.073Z,101641.20
2023-08-13T10:31:25.884Z,101638.33
2023-08-13T10:34:10.943Z,101634.34
2023-08-13T10:36:46.031Z,101636.52
2023-08-13T10:40:09.860Z,101630.23
2023-08-13T10:42:39.322Z,101625.47
2023-08-13T10:45:10.185Z,101627.84
2023-08-13T10:47:55.467Z,101629.33
2023-08-13T10:50:36.026Z,101632.27
2023-08-13T10:53:21.082Z,101631.86
2023-08-13T10:55:53.654Z,101631.06
2023-08-13T10:58:27.100Z,101628.29
2023-08-13T11:01:19.695Z,101629.77
2023-08-13T11:03:56.402Z,101628.80
2023-08-13T11:06:26.618Z,101627.88
2023-08-13T11:08:55.983Z,101623.77
2023-08-13T11:11:24.694Z,101615.73
2023-08-13T11:13:54.632Z,101617.38
2023-08-13T11:16:23.352Z,101612.67
2023-08-13T11:18:52.168Z,101605.83
2023-08-13T11:21:20.868Z,101597.98
2023-08-13T11:23:49.633Z,101592.27
2023-08-13T11:26:18.667Z,101596.59
2023-08-13T11:28:47.426Z,101598.06
2023-08-13T11:31:15.898Z,101596.65
2023-08-13T11:33:44.623Z,101589.61
2023-08-13T11:36:13.658Z,101590.95
2023-08-13T11:38:42.671Z,101583.73
2023-08-13T11:41:14.981Z,101586.05
2023-08-13T11:43:43.911Z,101587.01
2023-08-13T11:46:12.559Z,101579.85
2023-08-13T11:48:41.759Z,101571.88
2023-08-13T11:51:23.884Z,101570.45
2023-08-13T11:53:53.316Z,101568.27
2023-08-13T11:56:22.840Z,101569.92
2023-08-13T11:58:52.142Z,101565.81
2023-08-13T12:01:20.761Z,101562.90
2023-08-13T12:03:51.722Z,101565.68
2023-08-13T12:06:23.029Z,101570.42
2023-08-13T12:08:53.663Z,101564.16
2023-08-13T12:11:22.640Z,101566.09
2023-08-13T12:13:52.134Z,101564.51
2023-08-13T12:16:20.563Z,101561.36
2023-08-13T12:18:50.106Z,101560.36
2023-08-13T12:21:18.971Z,101564.52
2023-08-13T12:23:48.972Z,101564.36
2023-08-13T12:26:17.668Z,101566.94
2023-08-13T12:28:51.936Z,101565.16
2023-08-13T12:31:20.852Z,101558.52
2023-08-13T12:33:49.509Z,101561.46
2023-08-13T12:36:18.183Z,101560.77
2023-08-13T12:38:46.665Z,101561.83
2023-08-13T12:41:17.196Z,101560.73
2023-08-13T12:43:50.083Z,101555.98
2023-08-13T12:46:18.393Z,101557.90
2023-08-13T12:48:47.158Z,101558.73
2023-08-13T12:51:16.139Z,101558.10
2023-08-13T12:53:44.833Z,101553.73
2023-08-13T12:56:15.151Z,101548.71
2023-08-13T12:58:46.296Z,101549.84
2023-08-13T13:01:15.129Z,101549.98
2023-08-13T13:03:43.573Z,101550.10
2023-08-13T13:06:11.939Z,101549.90
2023-08-13T13:08:40.423Z,101543.48
2023-08-13T13:11:08.842Z,101537.23
2023-08-13T13:13:37.730Z,101541.76
2023-08-13T13:16:06.653Z,101543.88
2023-08-13T13:18:35.388Z,101543.42
2023-08-13T13:21:03.738Z,101538.80
2023-08-13T13:23:32.364Z,101541.55
2023-08-13T13:26:00.820Z,101539.84
2023-08-13T13:28:30.171Z,101535.16
2023-08-13T13:30:58.895Z,101538.17
2023-08-13T13:33:32.025Z,101536.22
2023-08-13T13:36:02.221Z,101531.73
2023-08-13T13:38:30.774Z,101528.68
2023-08-13T13:40:59.268Z,101522.08
2023-08-13T13:43:28.713Z,101522.22
2023-08-13T13:45:57.418Z,101522.50
2023-08-13T13:48:26.056Z,101519.95
2023-08-13T13:50:54.732Z,101523.05
2023-08-13T13:53:23.653Z,101517.76
2023-08-13T13:55:52.492Z,101517.57
2023-08-13T13:58:21.302Z,101515.00
2023-08-13T14:00:50.663Z,101511.83
2023-08-13T14:03:20.319Z,101509.99
2023-08-13T14:05:55.344Z,101510.72
2023-08-13T14:08:24.043Z,101513.69
2023-08-13T14:10:52.646Z,101507.86
2023-08-13T14:13:21.002Z,101503.79
2023-08-13T14:15:49.717Z,101500.55
2023-08-13T14:18:18.466Z,101498.30
2023-08-13T14:20:51.720Z,101495.02
2023-08-13T14:23:20.589Z,101491.98
2023-08-13T14:25:52.313Z,101490.65
2023-08-13T14:28:21.057Z,101489.14
2023-08-13T14:30:50.920Z,101492.22
2023-08-13T14:33:19.496Z,101497.85
2023-08-13T14:35:48.488Z,101496.50
2023-08-13T14:38:16.962Z,101496.30
2023-08-13T14:40:46.164Z,101495.38
2023-08-13T14:43:14.743Z,101494.16
2023-08-13T14:45:43.270Z,101493.11
2023-08-13T14:48:11.808Z,101494.53
2023-08-13T14:50:41.106Z,101493.55
2023-08-13T14:53:09.716Z,101489.29
2023-08-13T14:55:38.173Z,101491.94
2023-08-13T14:58:06.761Z,101493.38
2023-08-13T15:00:35.265Z,101496.12
2023-08-13T15:03:04.307Z,101496.78
2023-08-13T15:05:35.905Z,101496.94
2023-08-13T15:08:05.214Z,101495.41
2023-08-13T15:10:33.694Z,101495.87
2023-08-13T15:13:02.559Z,101498.14
2023-08-13T15:15:31.395Z,101502.85
2023-08-13T15:18:00.736Z,101503.35
2023-08-13T15:20:30.260Z,101501.71
2023-08-13T15:22:59.653Z,101502.70
2023-08-13T15:25:29.519Z,101500.14
2023-08-13T15:28:02.295Z,101496.92
2023-08-13T15:30:32.318Z,101495.67
2023-08-13T15:33:02.911Z,101496.77
2023-08-13T15:35:31.395Z,101492.73
2023-08-13T15:38:01.605Z,101492.71
2023-08-13T15:40:30.085Z,101492.77
2023-08-13T15:43:00.917Z,101496.68
2023-08-13T15:45:31.988Z,101500.16
2023-08-13T15:48:01.088Z,101505.00
2023-08-13T15:50:29.947Z,101509.95
2023-08-13T15:52:58.610Z,101509.98
2023-08-13T15:55:27.326Z,101513.24
2023-08-13T15:57:56.321Z,101516.63
2023-08-13T16:00:25.313Z,101515.91
2023-08-13T16:02:54.089Z,101516.94
2023-08-13T16:05:22.987Z,101517.17
2023-08-13T16:07:51.488Z,101518.83
2023-08-13T16:10:20.926Z,101517.14
2023-08-13T16:12:50.996Z,101516.45
2023-08-13T16:15:21.556Z,101515.09
2023-08-13T16:17:51.558Z,101513.50
2023-08-13T16:20:20.284Z,101513.86
2023-08-13T16:22:51.757Z,101517.54
2023-08-13T16:25:24.706Z,101518.89
2023-08-13T16:27:56.209Z,101517.92
2023-08-13T16:30:25.206Z,101517.98
2023-08-13T16:32:54.833Z,101519.42
2023-08-13T16:35:24.127Z,101519.38
2023-08-13T16:37:53.319Z,101521.95
2023-08-13T16:40:23.765Z,101519.95
2023-08-13T16:43:05.263Z,101522.33
2023-08-13T16:49:21.752Z,101523.41
2023-08-13T16:51:51.699Z,101521.58
2023-08-13T16:54:21.882Z,101523.80
2023-08-13T16:56:50.368Z,101528.56
2023-08-13T16:59:19.086Z,101527.32
2023-08-13T17:01:47.716Z,101532.17
2023-08-13T17:04:16.126Z,101536.82
2023-08-13T17:06:44.809Z,101537.52
2023-08-13T17:09:14.017Z,101538.02
2023-08-13T17:11:42.483Z,101540.74
2023-08-13T17:14:11.267Z,101540.70
2023-08-13T17:16:40.398Z,101547.29
2023-08-13T17:19:09.060Z,101550.13
2023-08-13T17:21:37.910Z,101551.45
2023-08-13T17:24:07.283Z,101549.23
2023-08-13T17:26:35.935Z,101548.48
2023-08-13T17:29:04.932Z,101550.85
2023-08-13T17:31:33.657Z,101551.09
2023-08-13T17:34:02.346Z,101553.81
2023-08-13T17:36:30.992Z,101559.89
2023-08-13T17:39:02.036Z,101558.28
2023-08-13T17:41:32.310Z,101560.44
2023-08-13T17:44:00.829Z,101564.41
2023-08-13T17:46:29.625Z,101564.96
2023-08-13T17:48:58.441Z,101567.77
2023-08-13T17:51:27.002Z,101573.85
2023-08-13T17:53:55.402Z,101576.15
2023-08-13T17:56:24.399Z,101574.77
2023-08-13T17:58:57.100Z,101578.48
2023-08-13T18:01:26.306Z,101580.55
2023-08-13T18:03:55.143Z,101583.90
2023-08-13T18:06:24.256Z,101590.95
2023-08-13T18:09:04.166Z,101597.10
2023-08-13T18:11:34.602Z,101596.77
2023-08-13T18:14:03.153Z,101598.16
2023-08-13T18:16:32.522Z,101604.02
2023-08-13T18:19:01.261Z,101605.94
2023-08-13T18:21:30.215Z,101605.43
2023-08-13T18:23:59.833Z,101608.54
2023-08-13T18:26:31.440Z,101614.06
2023-08-13T18:29:01.246Z,101612.80
2023-08-13T18:31:30.239Z,101614.19
2023-08-13T18:33:59.647Z,101615.19
2023-08-13T18:36:28.263Z,101616.42
2023-08-13T18:38:56.964Z,101616.42
2023-08-13T18:41:28.947Z,101618.73
2023-08-13T18:43:57.476Z,101624.31
2023-08-13T18:46:28.891Z,101623.09
2023-08-13T18:49:01.272Z,101621.94
2023-08-13T18:51:32.879Z,101622.71
2023-08-13T18:54:03.424Z,101622.18
2023-08-13T18:56:53.793Z,101627.52
2023-08-13T18:59:23.041Z,101632.55
2023-08-13T19:01:56.113Z,101634.64
2023-08-13T19:04:29.228Z,101632.58
2023-08-13T19:06:59.451Z,101634.31
2023-08-13T19:09:39.433Z,101638.17
2023-08-13T19:12:09.844Z,101641.01
2023-08-13T19:14:41.304Z,101643.11
2023-08-13T19:17:13.476Z,101646.42
2023-08-13T19:19:43.356Z,101647.48
2023-08-13T19:22:26.355Z,101649.25
2023-08-13T19:25:10.908Z,101650.84
2023-08-13T19:27:48.424Z,101652.55
2023-08-13T19:30:18.755Z,101655.31
2023-08-13T19:33:25.963Z,101654.33
2023-08-13T19:35:57.670Z,101655.77
2023-08-13T19:38:28.523Z,101660.41
2023-08-13T19:41:20.219Z,101657.38
2023-08-13T19:43:51.376Z,101654.43
2023-08-13T19:46:20.506Z,101657.13
2023-08-13T19:49:08.253Z,101660.52
2023-08-13T19:51:37.045Z,101660.10
2023-08-13T19:54:06.171Z,101662.13
2023-08-13T19:56:43.482Z,101668.02
2023-08-13T19:59:17.414Z,101673.45
2023-08-13T20:01:47.889Z,101674.88
2023-08-13T20:04:24.774Z,101678.10
2023-08-13T20:06:53.915Z,101676.67
2023-08-13T20:09:23.318Z,101679.66
2023-08-13T20:12:01.793Z,101680.83
2023-08-13T20:14:40.265Z,101680.80
2023-08-13T20:17:09.715Z,101684.46
2023-08-13T20:19:52.089Z,101686.95
2023-08-13T20:22:23.247Z,101689.94
2023-08-13T20:24:55.832Z,101690.32
2023-08-13T20:27:24.866Z,101691.08
2023-08-13T20:30:16.394Z,101690.73
2023-08-13T20:32:45.121Z,101692.11
2023-08-13T20:35:14.075Z,101691.25
2023-08-13T20:37:42.809Z,101697.16
2023-08-13T20:40:12.775Z,101696.64
2023-08-13T20:42:42.666Z,101695.61
2023-08-13T20:45:11.894Z,101701.23
2023-08-13T20:47:40.760Z,101701.32
2023-08-13T20:50:17.924Z,101703.02
2023-08-13T20:52:47.660Z,101707.93
2023-08-13T20:55:16.420Z,101706.14
2023-08-13T20:57:45.204Z,101707.58
2023-08-13T21:00:14.661Z,101712.84
2023-08-13T21:02:43.598Z,101709.81
2023-08-13T21:25:39.088Z,101718.66
2023-08-13T21:28:07.947Z,101714.64
2023-08-13T21:30:36.288Z,101720.66
2023-08-13T21:33:05.389Z,101719.47
2023-08-13T21:35:34.017Z,101720.20
2023-08-13T21:38:03.261Z,101720.58
2023-08-13T21:40:32.218Z,101722.89
2023-08-13T21:43:00.986Z,101722.58
2023-08-13T21:45:30.690Z,101721.58
2023-08-13T21:47:59.404Z,101722.52
2023-08-13T21:50:28.061Z,101726.86
2023-08-13T21:52:56.659Z,101733.33
2023-08-13T21:55:25.242Z,101733.80
2023-08-13T21:57:53.817Z,101734.78
2023-08-13T22:00:22.400Z,101737.36
2023-08-13T22:02:51.028Z,101735.91
2023-08-13T22:05:19.899Z,101735.14
2023-08-13T22:07:48.974Z,101737.50
2023-08-13T22:10:20.550Z,101738.58
2023-08-13T22:12:49.135Z,101737.33
2023-08-13T22:15:17.525Z,101740.38
2023-08-13T22:17:46.152Z,101744.86
2023-08-13T22:20:14.856Z,101743.44
2023-08-13T22:22:43.375Z,101743.30
2023-08-13T22:25:13.566Z,101744.02
2023-08-13T22:27:42.039Z,101749.33
2023-08-13T22:30:11.396Z,101749.12
2023-08-13T22:32:41.559Z,101745.59
2023-08-13T22:35:10.257Z,101744.17
2023-08-13T22:37:38.941Z,101749.98
2023-08-13T22:40:08.456Z,101753.98
2023-08-13T22:42:36.935Z,101754.14
2023-08-13T22:45:06.634Z,101756.98
2023-08-13T22:47:35.243Z,101754.58
2023-08-13T22:50:06.904Z,101758.16
2023-08-13T22:52:35.561Z,101760.38
2023-08-13T22:55:04.762Z,101761.17
2023-08-13T22:57:33.142Z,101763.38
2023-08-13T23:00:01.920Z,101765.90
2023-08-13T23:02:30.441Z,101766.63
2023-08-13T23:05:00.157Z,101767.31
2023-08-13T23:07:28.698Z,101768.73
2023-08-13T23:09:57.111Z,101769.12
2023-08-13T23:12:25.658Z,101773.55
2023-08-13T23:14:54.188Z,101773.91
2023-08-13T23:17:22.949Z,101774.45
2023-08-13T23:19:51.734Z,101774.27
2023-08-13T23:22:20.772Z,101774.63
2023-08-13T23:24:49.394Z,101775.18
2023-08-13T23:27:18.310Z,101774.89
2023-08-13T23:29:47.220Z,101777.42
2023-08-13T23:32:16.523Z,101776.96
2023-08-13T23:34:45.611Z,101774.05
2023-08-13T23:37:14.904Z,101774.14
2023-08-13T23:39:44.612Z,101773.16
2023-08-13T23:42:13.422Z,101773.16
2023-08-13T23:44:41.962Z,101773.34
2023-08-13T23:47:10.947Z,101775.83
2023-08-13T23:49:39.547Z,101774.48
2023-08-13T23:52:08.639Z,101776.90
2023-08-13T23:54:37.210Z,101781.09
2023-08-13T23:57:06.298Z,101777.10
2023-08-13T23:59:35.107Z,101778.49
